createdAt,value
2018-12-02T00:01:17.683Z,87.23
2018-12-02T00:03:46.295Z,87.44
2018-12-02T00:06:15.020Z,87.79
2018-12-02T00:08:43.945Z,87.38
2018-12-02T00:11:12.855Z,87.77
2018-12-02T00:13:41.554Z,87.25
2018-12-02T00:16:10.233Z,88.21
2018-12-02T00:18:39.890Z,87.26
2018-12-02T00:21:08.890Z,87.99
2018-12-02T00:23:37.549Z,88.21
2018-12-02T00:26:06.482Z,88.02
2018-12-02T00:28:35.217Z,87.95
2018-12-02T00:31:04.709Z,87.73
2018-12-02T00:33:33.370Z,87.79
2018-12-02T00:36:02.429Z,88.04
2018-12-02T00:38:31.110Z,88.34
2018-12-02T00:40:59.874Z,88.51
2018-12-02T00:43:28.693Z,88.67
2018-12-02T00:45:57.343Z,88.59
2018-12-02T00:48:26.924Z,88.80
2018-12-02T00:50:55.663Z,89.07
2018-12-02T00:53:24.363Z,88.98
2018-12-02T00:55:59.766Z,88.75
2018-12-02T00:58:28.381Z,88.87
2018-12-02T01:00:57.077Z,89.09
2018-12-02T01:03:26.566Z,89.29
2018-12-02T01:05:55.410Z,89.63
2018-12-02T01:08:24.175Z,89.39
2018-12-02T01:10:53.282Z,89.92
2018-12-02T01:13:22.244Z,90.25
2018-12-02T01:15:50.970Z,90.26
2018-12-02T01:18:19.747Z,91.02
2018-12-02T01:20:48.613Z,91.00
2018-12-02T01:23:17.209Z,90.62
2018-12-02T01:25:50.591Z,90.69
2018-12-02T01:28:19.341Z,90.85
2018-12-02T01:30:48.151Z,90.56
2018-12-02T01:33:17.017Z,90.92
2018-12-02T01:35:45.948Z,90.87
2018-12-02T01:38:14.582Z,90.32
2018-12-02T01:40:47.797Z,90.87
2018-12-02T01:43:16.575Z,90.79
2018-12-02T01:45:45.191Z,90.82
2018-12-02T01:48:14.196Z,90.98
2018-12-02T01:50:43.093Z,91.16
2018-12-02T01:53:11.914Z,91.34
2018-12-02T01:55:40.591Z,91.09
2018-12-02T01:58:09.259Z,92.17
2018-12-02T02:00:38.134Z,92.98
2018-12-02T02:03:06.842Z,93.51
2018-12-02T02:05:35.638Z,94.12
2018-12-02T02:08:10.884Z,94.71
2018-12-02T02:10:39.736Z,95.34
2018-12-02T02:13:08.428Z,96.26
2018-12-02T02:15:51.414Z,97.76
2018-12-02T02:18:38.196Z,100.00
2018-12-02T02:21:07.791Z,100.00
2018-12-02T02:23:36.413Z,100.00
2018-12-02T02:26:05.151Z,100.00
2018-12-02T02:28:34.425Z,100.00
2018-12-02T02:31:03.094Z,100.00
2018-12-02T02:33:31.817Z,100.00
2018-12-02T02:36:00.500Z,100.00
2018-12-02T02:38:30.234Z,100.00
2018-12-02T02:40:59.064Z,100.00
2018-12-02T02:43:34.428Z,100.00
2018-12-02T02:46:03.162Z,100.00
2018-12-02T02:48:31.844Z,100.00
2018-12-02T02:51:00.809Z,100.00
2018-12-02T02:53:29.699Z,100.00
2018-12-02T02:55:58.733Z,100.00
2018-12-02T02:58:27.670Z,100.00
2018-12-02T03:00:56.913Z,100.00
2018-12-02T03:03:26.364Z,100.00
2018-12-02T03:05:55.211Z,100.00
2018-12-02T03:08:23.937Z,100.00
2018-12-02T03:10:53.069Z,100.00
2018-12-02T03:13:22.027Z,100.00
2018-12-02T03:15:50.760Z,100.00
2018-12-02T03:18:19.765Z,100.00
2018-12-02T03:20:51.468Z,100.00
2018-12-02T03:23:20.318Z,100.00
2018-12-02T03:25:49.213Z,100.00
2018-12-02T03:28:17.872Z,100.00
2018-12-02T03:30:47.660Z,100.00
2018-12-02T03:33:16.847Z,100.00
2018-12-02T03:35:45.735Z,100.00
2018-12-02T03:38:14.730Z,100.00
2018-12-02T03:40:43.732Z,100.00
2018-12-02T03:43:12.579Z,100.00
2018-12-02T03:45:41.500Z,100.00
2018-12-02T03:48:10.259Z,100.00
2018-12-02T03:50:39.139Z,100.00
2018-12-02T03:53:07.996Z,100.00
2018-12-02T03:55:37.060Z,100.00
2018-12-02T03:58:05.905Z,100.00
2018-12-02T04:00:34.738Z,100.00
2018-12-02T04:03:03.719Z,100.00
2018-12-02T04:05:32.597Z,100.00
2018-12-02T04:08:01.373Z,100.00
2018-12-02T04:10:30.080Z,100.00
2018-12-02T04:12:59.279Z,100.00
2018-12-02T04:15:28.343Z,100.00
2018-12-02T04:17:57.142Z,100.00
2018-12-02T04:20:26.088Z,100.00
2018-12-02T04:22:54.845Z,100.00
2018-12-02T04:25:25.559Z,100.00
2018-12-02T04:27:54.543Z,100.00
2018-12-02T04:30:23.988Z,100.00
2018-12-02T04:32:53.502Z,100.00
2018-12-02T04:35:23.546Z,100.00
2018-12-02T04:37:52.375Z,100.00
2018-12-02T04:40:21.119Z,100.00
2018-12-02T04:42:51.214Z,100.00
2018-12-02T04:45:21.055Z,100.00
2018-12-02T04:47:50.297Z,100.00
2018-12-02T04:50:24.014Z,100.00
2018-12-02T04:52:52.815Z,100.00
2018-12-02T04:55:21.803Z,100.00
2018-12-02T04:57:50.832Z,100.00
2018-12-02T05:00:20.645Z,100.00
2018-12-02T05:02:52.268Z,100.00
2018-12-02T05:05:24.702Z,100.00
2018-12-02T05:07:53.889Z,100.00
2018-12-02T05:10:22.900Z,100.00
2018-12-02T05:12:52.722Z,100.00
2018-12-02T05:15:23.030Z,100.00
2018-12-02T05:17:51.701Z,100.00
2018-12-02T05:20:21.350Z,100.00
2018-12-02T05:22:50.240Z,100.00
2018-12-02T05:25:19.394Z,100.00
2018-12-02T05:27:48.121Z,100.00
2018-12-02T05:30:22.659Z,100.00
2018-12-02T05:32:54.796Z,100.00
2018-12-02T05:35:23.475Z,100.00
2018-12-02T05:37:52.122Z,100.00
2018-12-02T05:40:21.765Z,100.00
2018-12-02T05:42:50.894Z,100.00
2018-12-02T05:45:22.859Z,100.00
2018-12-02T05:47:52.410Z,100.00
2018-12-02T05:50:23.155Z,100.00
2018-12-02T05:52:55.816Z,100.00
2018-12-02T05:55:28.822Z,100.00
2018-12-02T05:57:57.608Z,100.00
2018-12-02T06:00:26.335Z,100.00
2018-12-02T06:02:58.840Z,100.00
2018-12-02T06:05:27.658Z,100.00
2018-12-02T06:07:56.415Z,100.00
2018-12-02T06:10:25.351Z,100.00
2018-12-02T06:12:54.172Z,100.00
2018-12-02T06:15:23.373Z,100.00
2018-12-02T06:17:52.937Z,100.00
2018-12-02T06:20:24.815Z,100.00
2018-12-02T06:22:56.636Z,100.00
2018-12-02T06:25:25.571Z,100.00
2018-12-02T06:27:54.931Z,100.00
2018-12-02T06:30:27.392Z,100.00
2018-12-02T06:33:03.709Z,100.00
2018-12-02T06:35:32.935Z,100.00
2018-12-02T06:38:03.903Z,100.00
2018-12-02T06:40:32.659Z,100.00
2018-12-02T06:43:02.203Z,100.00
2018-12-02T06:45:30.966Z,100.00
2018-12-02T06:47:59.818Z,100.00
2018-12-02T06:50:30.178Z,100.00
2018-12-02T06:52:59.253Z,100.00
2018-12-02T06:55:41.725Z,100.00
2018-12-02T06:58:22.725Z,100.00
2018-12-02T07:01:10.868Z,100.00
2018-12-02T07:03:48.679Z,100.00
2018-12-02T07:06:17.837Z,100.00
2018-12-02T07:08:46.761Z,100.00
2018-12-02T07:11:16.307Z,100.00
2018-12-02T07:13:45.167Z,100.00
2018-12-02T07:16:14.327Z,100.00
2018-12-02T07:18:46.292Z,100.00
2018-12-02T07:21:19.650Z,100.00
2018-12-02T07:23:51.754Z,100.00
2018-12-02T07:26:24.655Z,100.00
2018-12-02T07:28:54.467Z,100.00
2018-12-02T07:31:23.231Z,100.00
2018-12-02T07:33:52.034Z,100.00
2018-12-02T07:36:21.653Z,100.00
2018-12-02T07:39:04.573Z,100.00
2018-12-02T07:41:33.381Z,100.00
2018-12-02T07:44:02.275Z,100.00
2018-12-02T07:46:31.396Z,100.00
2018-12-02T07:49:00.349Z,100.00
2018-12-02T07:51:29.201Z,100.00
2018-12-02T07:53:57.942Z,100.00
2018-12-02T07:56:27.876Z,100.00
2018-12-02T07:58:57.668Z,100.00
2018-12-02T08:01:27.665Z,100.00
2018-12-02T08:03:56.565Z,100.00
2018-12-02T08:06:25.961Z,100.00
2018-12-02T08:08:54.746Z,100.00
2018-12-02T08:11:23.542Z,100.00
2018-12-02T08:13:53.042Z,100.00
2018-12-02T08:16:22.027Z,100.00
2018-12-02T08:18:50.919Z,100.00
2018-12-02T08:21:19.940Z,100.00
2018-12-02T08:23:48.771Z,100.00
2018-12-02T08:26:18.382Z,100.00
2018-12-02T08:28:47.072Z,100.00
2018-12-02T08:31:16.103Z,100.00
2018-12-02T08:33:45.013Z,100.00
2018-12-02T08:36:13.935Z,100.00
2018-12-02T08:38:42.782Z,100.00
2018-12-02T08:41:11.667Z,100.00
2018-12-02T08:43:41.204Z,100.00
2018-12-02T08:46:09.431Z,100.00
2018-12-02T08:48:38.242Z,100.00
2018-12-02T08:51:07.287Z,100.00
2018-12-02T08:53:36.560Z,100.00
2018-12-02T08:56:05.420Z,100.00
2018-12-02T08:58:34.514Z,100.00
2018-12-02T09:01:03.811Z,100.00
2018-12-02T09:03:32.612Z,100.00
2018-12-02T09:06:03.393Z,100.00
2018-12-02T09:08:32.542Z,100.00
2018-12-02T09:11:01.794Z,100.00
2018-12-02T09:13:31.478Z,100.00
2018-12-02T09:16:00.380Z,100.00
2018-12-02T09:18:29.237Z,100.00
2018-12-02T09:20:58.136Z,100.00
2018-12-02T09:23:27.111Z,100.00
2018-12-02T09:26:03.984Z,100.00
2018-12-02T09:28:32.975Z,100.00
2018-12-02T09:31:02.953Z,100.00
2018-12-02T09:33:32.005Z,100.00
2018-12-02T09:36:01.077Z,100.00
2018-12-02T09:38:29.959Z,100.00
2018-12-02T09:40:58.674Z,100.00
2018-12-02T09:43:27.718Z,100.00
2018-12-02T09:45:56.537Z,100.00
2018-12-02T09:48:25.971Z,100.00
2018-12-02T09:50:54.894Z,100.00
2018-12-02T09:53:23.723Z,100.00
2018-12-02T09:55:52.548Z,100.00
2018-12-02T09:58:26.184Z,100.00
2018-12-02T10:00:57.237Z,100.00
2018-12-02T10:03:26.700Z,100.00
2018-12-02T10:05:56.051Z,100.00
2018-12-02T10:08:25.095Z,100.00
2018-12-02T10:10:54.172Z,100.00
2018-12-02T10:13:24.927Z,100.00
2018-12-02T10:15:54.152Z,100.00
2018-12-02T10:18:25.723Z,100.00
2018-12-02T10:20:54.664Z,100.00
2018-12-02T10:23:23.623Z,100.00
2018-12-02T10:25:52.854Z,100.00
2018-12-02T10:28:22.185Z,100.00
2018-12-02T10:30:51.395Z,100.00
2018-12-02T10:33:20.958Z,100.00
2018-12-02T10:35:49.846Z,100.00
2018-12-02T10:38:19.586Z,100.00
2018-12-02T10:40:48.433Z,100.00
2018-12-02T10:43:17.821Z,100.00
2018-12-02T10:45:46.791Z,100.00
2018-12-02T10:48:15.610Z,100.00
2018-12-02T10:50:44.320Z,100.00
2018-12-02T10:53:17.491Z,100.00
2018-12-02T10:55:56.388Z,100.00
2018-12-02T10:58:26.916Z,100.00
2018-12-02T11:01:02.972Z,100.00
2018-12-02T11:03:32.257Z,100.00
2018-12-02T11:06:01.678Z,100.00
2018-12-02T11:08:30.813Z,100.00
2018-12-02T11:11:00.004Z,100.00
2018-12-02T11:13:29.294Z,100.00
2018-12-02T11:15:58.279Z,100.00
2018-12-02T11:18:27.260Z,100.00
2018-12-02T11:20:56.333Z,100.00
2018-12-02T11:23:25.336Z,100.00
2018-12-02T11:25:55.470Z,100.00
2018-12-02T11:28:24.448Z,100.00
2018-12-02T11:30:53.349Z,100.00
2018-12-02T11:33:22.770Z,100.00
2018-12-02T11:35:52.664Z,100.00
2018-12-02T11:38:21.761Z,100.00
2018-12-02T11:40:51.572Z,100.00
2018-12-02T11:43:20.995Z,100.00
2018-12-02T11:45:50.571Z,100.00
2018-12-02T11:48:20.293Z,100.00
2018-12-02T11:50:50.817Z,100.00
2018-12-02T11:53:20.422Z,100.00
2018-12-02T11:55:50.484Z,100.00
2018-12-02T11:58:20.407Z,100.00
2018-12-02T12:00:50.681Z,100.00
2018-12-02T12:03:21.146Z,100.00
2018-12-02T12:05:51.748Z,100.00
2018-12-02T12:08:22.022Z,100.00
2018-12-02T12:10:52.119Z,100.00
2018-12-02T12:13:22.410Z,100.00
2018-12-02T12:15:52.659Z,100.00
2018-12-02T12:18:21.891Z,100.00
2018-12-02T12:20:51.258Z,100.00
2018-12-02T12:23:21.584Z,100.00
2018-12-02T12:25:52.172Z,100.00
2018-12-02T12:28:22.985Z,100.00
2018-12-02T12:30:52.817Z,100.00
2018-12-02T12:33:24.496Z,100.00
2018-12-02T12:35:56.025Z,100.00
2018-12-02T12:38:28.044Z,100.00
2018-12-02T12:40:59.709Z,100.00
2018-12-02T12:43:33.366Z,100.00
2018-12-02T12:46:06.047Z,100.00
2018-12-02T12:48:35.208Z,100.00
2018-12-02T12:51:04.085Z,100.00
2018-12-02T12:53:32.880Z,100.00
2018-12-02T12:56:01.930Z,100.00
2018-12-02T12:58:30.902Z,100.00
2018-12-02T13:01:00.548Z,100.00
2018-12-02T13:03:33.409Z,100.00
2018-12-02T13:06:02.447Z,100.00
2018-12-02T13:08:31.400Z,100.00
2018-12-02T13:11:00.980Z,100.00
2018-12-02T13:13:31.533Z,100.00
2018-12-02T13:16:00.343Z,100.00
2018-12-02T13:18:29.373Z,100.00
2018-12-02T13:20:58.254Z,100.00
2018-12-02T13:23:27.272Z,100.00
2018-12-02T13:25:59.467Z,100.00
2018-12-02T13:28:28.317Z,100.00
2018-12-02T13:30:57.382Z,100.00
2018-12-02T13:33:26.303Z,100.00
2018-12-02T13:35:55.387Z,100.00
2018-12-02T13:38:24.368Z,100.00
2018-12-02T13:40:53.605Z,100.00
2018-12-02T13:43:23.994Z,100.00
2018-12-02T13:45:52.865Z,100.00
2018-12-02T13:48:21.682Z,100.00
2018-12-02T13:50:50.487Z,100.00
2018-12-02T13:53:19.419Z,100.00
2018-12-02T13:55:48.384Z,100.00
2018-12-02T13:58:17.600Z,100.00
2018-12-02T14:00:46.968Z,100.00
2018-12-02T14:03:16.369Z,100.00
2018-12-02T14:05:49.220Z,100.00
2018-12-02T14:08:18.308Z,100.00
2018-12-02T14:10:47.540Z,100.00
2018-12-02T14:13:20.138Z,100.00
2018-12-02T14:16:31.855Z,100.00
2018-12-02T14:19:10.474Z,100.00
2018-12-02T14:21:42.586Z,100.00
2018-12-02T14:24:14.726Z,100.00
2018-12-02T14:26:48.759Z,100.00
2018-12-02T14:29:25.437Z,100.00
2018-12-02T14:31:59.041Z,100.00
2018-12-02T14:34:31.098Z,100.00
2018-12-02T14:37:03.188Z,100.00
2018-12-02T14:39:35.293Z,100.00
2018-12-02T14:42:07.428Z,100.00
2018-12-02T14:44:42.340Z,100.00
2018-12-02T14:47:13.956Z,100.00
2018-12-02T14:49:46.011Z,100.00
2018-12-02T14:52:18.113Z,100.00
2018-12-02T14:54:50.024Z,100.00
2018-12-02T14:57:23.027Z,100.00
2018-12-02T14:59:52.053Z,100.00
2018-12-02T15:02:21.057Z,100.00
2018-12-02T15:04:49.952Z,100.00
2018-12-02T15:07:18.839Z,100.00
2018-12-02T15:09:47.752Z,100.00
2018-12-02T15:12:16.537Z,100.00
2018-12-02T15:14:45.531Z,100.00
2018-12-02T15:17:14.458Z,100.00
2018-12-02T15:19:43.323Z,100.00
2018-12-02T15:22:13.608Z,100.00
2018-12-02T15:24:43.869Z,100.00
2018-12-02T15:27:13.385Z,100.00
2018-12-02T15:29:43.482Z,100.00
2018-12-02T15:32:14.042Z,100.00
2018-12-02T15:34:43.020Z,100.00
2018-12-02T15:37:12.101Z,100.00
2018-12-02T15:39:41.107Z,100.00
2018-12-02T15:42:10.310Z,100.00
2018-12-02T15:44:40.788Z,100.00
2018-12-02T15:47:10.716Z,100.00
2018-12-02T15:49:39.696Z,100.00
2018-12-02T15:52:08.523Z,100.00
2018-12-02T15:54:37.968Z,100.00
2018-12-02T15:57:06.967Z,100.00
2018-12-02T15:59:35.856Z,100.00
2018-12-02T16:02:04.816Z,100.00
2018-12-02T16:04:33.651Z,100.00
2018-12-02T16:07:03.312Z,100.00
2018-12-02T16:09:32.251Z,100.00
2018-12-02T16:12:01.866Z,100.00
2018-12-02T16:14:30.954Z,100.00
2018-12-02T16:16:59.729Z,100.00
2018-12-02T16:19:28.934Z,100.00
2018-12-02T16:21:57.860Z,100.00
2018-12-02T16:24:27.013Z,100.00
2018-12-02T16:26:56.017Z,100.00
2018-12-02T16:29:25.076Z,100.00
2018-12-02T16:31:53.972Z,100.00
2018-12-02T16:34:23.846Z,100.00
2018-12-02T16:36:52.967Z,100.00
2018-12-02T16:39:22.040Z,100.00
2018-12-02T16:41:51.528Z,100.00
2018-12-02T16:44:21.308Z,100.00
2018-12-02T16:46:50.183Z,100.00
2018-12-02T16:49:18.942Z,100.00
2018-12-02T16:51:48.135Z,100.00
2018-12-02T16:54:17.719Z,100.00
2018-12-02T16:56:46.993Z,100.00
2018-12-02T16:59:22.361Z,100.00
2018-12-02T17:01:55.242Z,100.00
2018-12-02T17:04:25.341Z,100.00
2018-12-02T17:06:54.976Z,100.00
2018-12-02T17:09:26.342Z,100.00
2018-12-02T17:11:58.754Z,100.00
2018-12-02T17:14:27.609Z,100.00
2018-12-02T17:16:56.495Z,100.00
2018-12-02T17:19:25.371Z,100.00
2018-12-02T17:22:02.939Z,100.00
2018-12-02T17:24:31.794Z,100.00
2018-12-02T17:27:00.615Z,100.00
2018-12-02T17:29:29.293Z,100.00
2018-12-02T17:32:01.396Z,100.00
2018-12-02T17:34:30.666Z,100.00
2018-12-02T17:36:59.529Z,100.00
2018-12-02T17:39:31.614Z,100.00
2018-12-02T17:42:03.275Z,100.00
2018-12-02T17:44:32.319Z,100.00
2018-12-02T17:47:01.308Z,100.00
2018-12-02T17:49:31.377Z,100.00
2018-12-02T17:52:00.398Z,100.00
2018-12-02T17:54:29.491Z,100.00
2018-12-02T17:57:06.871Z,100.00
2018-12-02T17:59:37.493Z,100.00
2018-12-02T18:02:07.543Z,100.00
2018-12-02T18:04:36.617Z,100.00
2018-12-02T18:07:08.059Z,100.00
2018-12-02T18:09:37.551Z,100.00
2018-12-02T18:12:06.369Z,100.00
2018-12-02T18:14:35.608Z,100.00
2018-12-02T18:17:04.952Z,100.00
2018-12-02T18:19:33.747Z,100.00
2018-12-02T18:22:03.093Z,100.00
2018-12-02T18:24:31.939Z,100.00
2018-12-02T18:27:00.607Z,100.00
2018-12-02T18:29:29.654Z,100.00
2018-12-02T18:31:58.421Z,100.00
2018-12-02T18:34:27.334Z,100.00
2018-12-02T18:36:56.690Z,100.00
2018-12-02T18:39:25.683Z,100.00
2018-12-02T18:41:55.385Z,100.00
2018-12-02T18:44:24.104Z,100.00
2018-12-02T18:46:52.905Z,100.00
2018-12-02T18:49:22.257Z,100.00
2018-12-02T18:51:51.616Z,100.00
2018-12-02T18:54:20.399Z,100.00
2018-12-02T18:56:49.167Z,100.00
2018-12-02T18:59:17.860Z,100.00
2018-12-02T19:01:46.769Z,100.00
2018-12-02T19:04:15.703Z,100.00
2018-12-02T19:06:44.666Z,100.00
2018-12-02T19:09:14.488Z,100.00
2018-12-02T19:11:43.514Z,100.00
2018-12-02T19:14:18.642Z,100.00
2018-12-02T19:16:47.375Z,100.00
2018-12-02T19:19:16.268Z,100.00
2018-12-02T19:21:45.802Z,100.00
2018-12-02T19:24:14.654Z,100.00
2018-12-02T19:26:44.406Z,100.00
2018-12-02T19:29:13.170Z,100.00
2018-12-02T19:31:44.323Z,100.00
2018-12-02T19:34:13.413Z,100.00
2018-12-02T19:36:48.613Z,100.00
2018-12-02T19:39:17.398Z,100.00
2018-12-02T19:41:46.569Z,100.00
2018-12-02T19:44:15.391Z,100.00
2018-12-02T19:46:44.325Z,100.00
2018-12-02T19:49:13.358Z,100.00
2018-12-02T19:51:42.511Z,100.00
2018-12-02T19:54:12.206Z,100.00
2018-12-02T19:56:42.075Z,100.00
2018-12-02T19:59:11.264Z,100.00
2018-12-02T20:01:41.588Z,100.00
2018-12-02T20:04:10.885Z,100.00
2018-12-02T20:06:41.785Z,100.00
2018-12-02T20:09:11.458Z,100.00
2018-12-02T20:11:41.327Z,100.00
2018-12-02T20:14:10.765Z,100.00
2018-12-02T20:16:40.136Z,100.00
2018-12-02T20:20:16.071Z,100.00
2018-12-02T20:22:45.932Z,100.00
2018-12-02T20:25:15.646Z,100.00
2018-12-02T20:27:45.665Z,100.00
2018-12-02T20:30:18.434Z,100.00
2018-12-02T20:32:47.409Z,100.00
2018-12-02T20:35:16.316Z,100.00
2018-12-02T20:37:45.396Z,100.00
2018-12-02T20:40:17.501Z,100.00
2018-12-02T20:42:47.089Z,100.00
2018-12-02T20:45:17.214Z,100.00
2018-12-02T20:47:46.295Z,100.00
2018-12-02T20:50:17.428Z,100.00
2018-12-02T20:52:47.031Z,100.00
2018-12-02T20:55:24.778Z,100.00
2018-12-02T20:57:56.367Z,100.00
2018-12-02T21:00:25.465Z,100.00
2018-12-02T21:02:59.702Z,100.00
2018-12-02T21:05:36.307Z,100.00
2018-12-02T21:08:05.495Z,100.00
2018-12-02T21:10:34.615Z,100.00
2018-12-02T21:13:03.730Z,100.00
2018-12-02T21:15:32.831Z,100.00
2018-12-02T21:18:01.733Z,100.00
2018-12-02T21:20:30.665Z,100.00
2018-12-02T21:22:59.557Z,100.00
2018-12-02T21:25:28.888Z,100.00
2018-12-02T21:27:57.732Z,100.00
2018-12-02T21:30:28.172Z,100.00
2018-12-02T21:32:57.300Z,100.00
2018-12-02T21:35:26.321Z,100.00
2018-12-02T21:37:57.718Z,100.00
2018-12-02T21:40:29.412Z,100.00
2018-12-02T21:43:00.112Z,100.00
2018-12-02T21:45:30.713Z,100.00
2018-12-02T21:48:00.697Z,100.00
2018-12-02T21:50:33.277Z,100.00
2018-12-02T21:53:04.785Z,100.00
2018-12-02T21:55:34.813Z,100.00
2018-12-02T21:58:05.001Z,100.00
2018-12-02T22:00:40.730Z,100.00
2018-12-02T22:03:11.518Z,100.00
2018-12-02T22:08:14.309Z,100.00
2018-12-02T22:10:44.596Z,100.00
2018-12-02T22:13:15.631Z,100.00
2018-12-02T22:15:46.359Z,100.00
2018-12-02T22:18:16.064Z,100.00
2018-12-02T22:20:46.041Z,100.00
2018-12-02T22:23:15.991Z,100.00
2018-12-02T22:25:49.484Z,100.00
2018-12-02T22:28:20.653Z,100.00
2018-12-02T22:30:51.081Z,100.00
2018-12-02T22:33:21.091Z,100.00
2018-12-02T22:35:50.479Z,100.00
2018-12-02T22:38:20.799Z,100.00
2018-12-02T22:40:50.793Z,100.00
2018-12-02T22:43:20.944Z,100.00
2018-12-02T22:45:52.963Z,100.00
2018-12-02T22:48:26.045Z,100.00
2018-12-02T22:50:58.334Z,100.00
2018-12-02T22:53:31.359Z,100.00
2018-12-02T22:56:05.327Z,100.00
2018-12-02T22:58:38.461Z,100.00
2018-12-02T23:01:14.293Z,100.00
2018-12-02T23:03:45.768Z,100.00
2018-12-02T23:06:16.256Z,100.00
2018-12-02T23:08:46.852Z,100.00
2018-12-02T23:11:17.551Z,100.00
2018-12-02T23:13:48.641Z,100.00
2018-12-02T23:16:19.456Z,100.00
2018-12-02T23:18:49.775Z,100.00
2018-12-02T23:21:20.979Z,100.00
2018-12-02T23:23:53.188Z,100.00
2018-12-02T23:26:25.651Z,100.00
2018-12-02T23:28:55.824Z,100.00
2018-12-02T23:31:27.289Z,100.00
2018-12-02T23:33:57.260Z,100.00
2018-12-02T23:36:26.253Z,100.00
2018-12-02T23:38:55.233Z,100.00
2018-12-02T23:41:24.329Z,100.00
2018-12-02T23:43:53.292Z,100.00
2018-12-02T23:48:58.660Z,100.00
2018-12-02T23:51:27.500Z,100.00
2018-12-02T23:53:56.448Z,100.00
2018-12-02T23:56:25.435Z,100.00
2018-12-02T23:58:54.410Z,100.00
